Time;durP1;ratioP1;P1;durP2;ratioP2;P2;SDS_P1;SDS_P2;PMS_P1;PMS_P2;Temp;Humidity;BMP_temperature;BMP_pressure;BME280_temperature;BME280_humidity;BME280_pressure;Samples;Min_cycle;Max_cycle;Signal;HPM_P1;HPM_P2
2021/07/02 00:00:45;;;;;;;;;;;20.80;62.80;;;;;;5032365;28;19920;-62
2021/07/02 00:03:10;;;;;;;;;;;20.90;62.60;;;;;;5019997;28;19955;-62
2021/07/02 00:05:36;;;;;;;;;;;20.90;62.50;;;;;;5027226;28;20374;-63
2021/07/02 00:08:01;;;;;;;;;;;20.90;62.80;;;;;;4993100;28;19921;-62
2021/07/02 00:10:26;;;;;;;;;;;20.90;62.60;;;;;;5029002;28;19940;-62
2021/07/02 00:12:52;;;;;;;;;;;20.80;62.60;;;;;;5030937;28;19920;-62
2021/07/02 00:15:18;;;;;;;;;;;20.80;62.40;;;;;;5026477;28;20687;-63
2021/07/02 00:17:43;;;;;;;;;;;20.80;62.40;;;;;;5027937;28;20123;-62
2021/07/02 00:20:09;;;;;;;;;;;20.80;62.60;;;;;;5024017;28;19920;-61
2021/07/02 00:22:34;;;;;;;;;;;20.80;62.80;;;;;;5017440;28;20116;-62
2021/07/02 00:25:00;;;;;;;;;;;20.80;62.80;;;;;;5035740;28;19921;-62
2021/07/02 00:27:26;;;;;;;;;;;20.80;62.90;;;;;;5005370;28;20619;-62
2021/07/02 00:29:51;;;;;;;;;;;20.80;62.50;;;;;;5009309;28;20042;-62
2021/07/02 00:32:17;;;;;;;;;;;20.70;62.70;;;;;;5024773;28;20408;-62
2021/07/02 00:34:42;;;;;;;;;;;20.80;62.70;;;;;;5034540;28;19924;-62
2021/07/02 00:37:08;;;;;;;;;;;20.70;62.70;;;;;;5022120;28;19921;-62
2021/07/02 00:39:33;;;;;;;;;;;20.70;62.80;;;;;;5025367;28;20632;-62
2021/07/02 00:41:59;;;;;;;;;;;20.70;62.90;;;;;;5021623;28;19924;-62
2021/07/02 00:44:37;;;;;;;;;;;20.70;62.80;;;;;;5032163;28;20641;-62
2021/07/02 00:47:02;;;;;;;;;;;20.80;62.90;;;;;;5006641;28;19925;-62
2021/07/02 00:49:28;;;;;;;;;;;20.80;63.00;;;;;;5016185;28;19921;-62
2021/07/02 00:51:53;;;;;;;;;;;20.70;62.80;;;;;;5011057;28;19925;-62
2021/07/02 00:54:19;;;;;;;;;;;20.60;62.80;;;;;;5023686;28;19928;-62
2021/07/02 00:56:44;;;;;;;;;;;20.60;62.90;;;;;;5025083;28;20379;-62
2021/07/02 00:59:10;;;;;;;;;;;20.70;63.00;;;;;;5008110;28;19925;-62
2021/07/02 01:01:35;;;;;;;;;;;20.70;63.00;;;;;;5004520;28;19933;-62
2021/07/02 01:04:01;;;;;;;;;;;20.70;62.80;;;;;;5025266;28;20008;-62
2021/07/02 01:06:26;;;;;;;;;;;20.60;62.90;;;;;;5028625;28;20513;-62
2021/07/02 01:08:51;;;;;;;;;;;20.60;63.00;;;;;;5025899;28;20364;-63
2021/07/02 01:11:17;;;;;;;;;;;20.70;63.20;;;;;;5022668;28;19921;-63
2021/07/02 01:13:43;;;;;;;;;;;20.70;63.20;;;;;;5015058;28;19921;-61
2021/07/02 01:16:09;;;;;;;;;;;20.70;63.20;;;;;;5031150;28;19920;-62
2021/07/02 01:18:34;;;;;;;;;;;20.70;63.40;;;;;;5011222;28;19927;-62
2021/07/02 01:21:00;;;;;;;;;;;20.70;63.30;;;;;;5007798;28;19921;-62
2021/07/02 01:23:27;;;;;;;;;;;20.70;63.30;;;;;;5001979;28;19925;-62
2021/07/02 01:25:52;;;;;;;;;;;20.70;63.30;;;;;;5013694;28;20298;-62
2021/07/02 01:28:17;;;;;;;;;;;20.80;63.40;;;;;;4997250;28;19921;-62
2021/07/02 01:30:43;;;;;;;;;;;20.80;63.50;;;;;;4973898;28;20569;-62
2021/07/02 01:33:09;;;;;;;;;;;20.70;63.00;;;;;;5001065;28;19922;-61
2021/07/02 01:35:34;;;;;;;;;;;20.70;63.40;;;;;;5013666;28;20074;-62
2021/07/02 01:38:00;;;;;;;;;;;20.70;63.60;;;;;;4989937;28;19922;-62
2021/07/02 01:40:25;;;;;;;;;;;20.70;63.60;;;;;;5009787;28;20532;-62
2021/07/02 01:42:51;;;;;;;;;;;20.80;63.60;;;;;;5005081;28;20429;-61
2021/07/02 01:45:16;;;;;;;;;;;20.70;63.40;;;;;;5001135;28;19917;-62
2021/07/02 01:47:42;;;;;;;;;;;20.70;63.40;;;;;;5007185;28;19929;-62
2021/07/02 01:50:08;;;;;;;;;;;20.60;63.60;;;;;;5008138;28;19924;-62
2021/07/02 01:52:33;;;;;;;;;;;20.70;63.70;;;;;;5014350;28;20351;-62
2021/07/02 01:54:58;;;;;;;;;;;20.70;63.70;;;;;;5007340;28;20402;-62
2021/07/02 01:57:25;;;;;;;;;;;20.60;63.60;;;;;;5015895;28;19956;-62
2021/07/02 01:59:50;;;;;;;;;;;20.60;63.70;;;;;;5030271;22;19961;-63
2021/07/02 02:02:16;;;;;;;;;;;20.60;63.80;;;;;;5012896;28;20171;-64
2021/07/02 02:04:41;;;;;;;;;;;20.60;63.90;;;;;;5006908;28;19918;-63
2021/07/02 02:07:07;;;;;;;;;;;20.70;63.80;;;;;;4997027;28;19925;-63
2021/07/02 02:09:32;;;;;;;;;;;20.70;63.70;;;;;;4986701;28;19921;-63
2021/07/02 02:11:58;;;;;;;;;;;20.70;63.70;;;;;;4987427;28;19928;-63
2021/07/02 02:14:23;;;;;;;;;;;20.70;63.80;;;;;;4993503;28;20024;-63
2021/07/02 02:16:48;;;;;;;;;;;20.70;63.70;;;;;;4995216;28;19917;-63
2021/07/02 02:19:14;;;;;;;;;;;20.60;63.40;;;;;;4984023;28;20032;-63
2021/07/02 02:21:39;;;;;;;;;;;20.60;63.70;;;;;;4993433;28;19999;-62
2021/07/02 02:24:05;;;;;;;;;;;20.60;63.90;;;;;;4995054;28;20138;-63
2021/07/02 02:26:30;;;;;;;;;;;20.60;63.90;;;;;;4994626;28;20711;-63
2021/07/02 02:28:56;;;;;;;;;;;20.60;63.80;;;;;;4974933;28;19921;-60
2021/07/02 02:31:21;;;;;;;;;;;20.60;63.80;;;;;;4970936;28;19918;-60
2021/07/02 02:33:47;;;;;;;;;;;20.60;63.70;;;;;;4965525;28;19949;-61
2021/07/02 02:36:12;;;;;;;;;;;20.60;64.10;;;;;;4958246;28;20406;-61
2021/07/02 02:38:38;;;;;;;;;;;20.60;64.10;;;;;;4959612;28;19929;-62
2021/07/02 02:41:03;;;;;;;;;;;20.60;63.80;;;;;;4963683;28;19961;-61
2021/07/02 02:43:28;;;;;;;;;;;20.60;63.90;;;;;;4970924;28;19922;-62
2021/07/02 02:45:54;;;;;;;;;;;20.60;63.90;;;;;;4960932;28;20420;-61
2021/07/02 02:48:19;;;;;;;;;;;20.60;63.80;;;;;;4964713;28;19933;-60
2021/07/02 02:50:45;;;;;;;;;;;20.60;64.10;;;;;;4965114;28;20441;-61
2021/07/02 02:53:10;;;;;;;;;;;20.60;64.10;;;;;;4964133;28;19922;-62
2021/07/02 02:55:36;;;;;;;;;;;20.60;64.00;;;;;;4963559;28;19926;-60
2021/07/02 02:58:01;;;;;;;;;;;20.60;63.90;;;;;;4962748;28;19965;-61
2021/07/02 03:00:27;;;;;;;;;;;20.60;64.00;;;;;;4961991;28;19926;-61
2021/07/02 03:02:52;;;;;;;;;;;20.70;64.10;;;;;;4973721;28;19926;-61
2021/07/02 03:05:18;;;;;;;;;;;20.60;63.90;;;;;;4961066;28;19918;-61
2021/07/02 03:07:43;;;;;;;;;;;20.60;64.00;;;;;;4959272;28;19926;-61
2021/07/02 03:10:09;;;;;;;;;;;20.60;64.00;;;;;;4963544;28;19922;-61
2021/07/02 03:12:35;;;;;;;;;;;20.60;64.00;;;;;;4967805;28;19984;-61
2021/07/02 03:15:00;;;;;;;;;;;20.60;63.70;;;;;;4962112;28;19922;-61
2021/07/02 03:17:26;;;;;;;;;;;20.60;64.10;;;;;;4969563;28;20391;-61
2021/07/02 03:19:51;;;;;;;;;;;20.60;64.10;;;;;;4969359;28;19941;-62
2021/07/02 03:22:17;;;;;;;;;;;20.50;64.10;;;;;;4993091;28;19922;-65
2021/07/02 03:24:42;;;;;;;;;;;20.60;64.20;;;;;;4993974;28;19910;-61
2021/07/02 03:27:08;;;;;;;;;;;20.60;64.20;;;;;;4989827;28;19981;-60
2021/07/02 03:29:33;;;;;;;;;;;20.60;64.10;;;;;;4970245;28;19933;-61
2021/07/02 03:31:59;;;;;;;;;;;20.60;64.10;;;;;;4966582;28;19918;-60
2021/07/02 03:34:24;;;;;;;;;;;20.60;64.20;;;;;;4959583;28;19918;-60
2021/07/02 03:36:49;;;;;;;;;;;20.60;64.00;;;;;;4967519;28;19924;-61
2021/07/02 03:39:15;;;;;;;;;;;20.60;64.10;;;;;;4963547;28;19989;-62
2021/07/02 03:41:40;;;;;;;;;;;20.60;64.20;;;;;;4962912;28;20273;-61
2021/07/02 03:44:06;;;;;;;;;;;20.60;64.10;;;;;;4968347;28;19938;-60
2021/07/02 03:46:31;;;;;;;;;;;20.60;64.20;;;;;;4965240;28;19924;-60
2021/07/02 03:48:57;;;;;;;;;;;20.50;64.10;;;;;;4968753;28;19949;-61
2021/07/02 03:51:22;;;;;;;;;;;20.60;64.20;;;;;;4968185;28;19918;-61
2021/07/02 03:53:48;;;;;;;;;;;20.60;64.20;;;;;;4965157;28;19929;-61
2021/07/02 03:56:13;;;;;;;;;;;20.60;64.20;;;;;;4967643;28;20004;-61
2021/07/02 03:58:39;;;;;;;;;;;20.60;64.10;;;;;;4969922;28;20359;-61
2021/07/02 04:01:04;;;;;;;;;;;20.60;64.10;;;;;;4975510;28;19937;-61
2021/07/02 04:03:31;;;;;;;;;;;20.60;64.30;;;;;;4961114;28;19926;-62
2021/07/02 04:05:57;;;;;;;;;;;20.60;64.20;;;;;;4972345;28;19997;-60
2021/07/02 04:08:22;;;;;;;;;;;20.60;64.20;;;;;;4972285;28;19918;-62
2021/07/02 04:10:48;;;;;;;;;;;20.60;64.40;;;;;;4967074;28;19922;-60
2021/07/02 04:13:15;;;;;;;;;;;20.50;64.20;;;;;;4963030;28;19922;-61
2021/07/02 04:15:40;;;;;;;;;;;20.50;64.40;;;;;;4960614;28;19973;-60
2021/07/02 04:18:07;;;;;;;;;;;20.60;64.30;;;;;;4964379;28;19926;-61
2021/07/02 04:20:33;;;;;;;;;;;20.50;64.30;;;;;;4967051;28;19926;-61
2021/07/02 04:22:58;;;;;;;;;;;20.60;64.30;;;;;;4967859;28;19922;-61
2021/07/02 04:25:23;;;;;;;;;;;20.60;64.50;;;;;;4959394;28;20409;-61
2021/07/02 04:27:49;;;;;;;;;;;20.60;64.50;;;;;;4969821;28;19922;-61
2021/07/02 04:30:14;;;;;;;;;;;20.50;64.40;;;;;;4969170;28;19933;-60
2021/07/02 04:32:40;;;;;;;;;;;20.50;64.40;;;;;;4962245;28;20005;-61
2021/07/02 04:35:06;;;;;;;;;;;20.50;64.40;;;;;;4965369;28;20455;-61
2021/07/02 04:37:31;;;;;;;;;;;20.60;64.50;;;;;;4961208;28;19926;-61
2021/07/02 04:39:57;;;;;;;;;;;20.60;64.50;;;;;;4965116;28;19918;-61
2021/07/02 04:42:22;;;;;;;;;;;20.50;64.50;;;;;;4973323;28;20298;-61
2021/07/02 04:44:48;;;;;;;;;;;20.60;64.60;;;;;;4959460;28;19922;-60
2021/07/02 04:47:13;;;;;;;;;;;20.60;64.70;;;;;;4958597;28;19922;-61
2021/07/02 04:49:39;;;;;;;;;;;20.60;64.70;;;;;;4974497;28;19926;-60
2021/07/02 04:52:05;;;;;;;;;;;20.60;64.80;;;;;;4971281;28;19926;-63
2021/07/02 04:54:30;;;;;;;;;;;20.60;65.10;;;;;;4961404;28;20836;-62
2021/07/02 04:56:56;;;;;;;;;;;20.60;65.10;;;;;;4966355;28;19976;-63
2021/07/02 04:59:27;;;;;;;;;;;20.60;65.00;;;;;;4964921;28;20030;-62
2021/07/02 05:01:52;;;;;;;;;;;20.60;64.60;;;;;;4964994;28;19961;-62
2021/07/02 05:04:18;;;;;;;;;;;20.50;65.10;;;;;;4966160;28;20298;-63
2021/07/02 05:06:43;;;;;;;;;;;20.40;65.00;;;;;;4968157;28;19921;-62
2021/07/02 05:09:09;;;;;;;;;;;20.50;65.10;;;;;;4962648;28;20445;-62
2021/07/02 05:11:34;;;;;;;;;;;20.50;65.00;;;;;;4968672;28;19922;-62
2021/07/02 05:14:01;;;;;;;;;;;20.50;64.90;;;;;;4964934;28;19921;-62
2021/07/02 05:16:27;;;;;;;;;;;20.50;65.00;;;;;;4964131;28;20009;-63
2021/07/02 05:18:52;;;;;;;;;;;20.50;64.90;;;;;;4969619;28;19925;-61
2021/07/02 05:21:18;;;;;;;;;;;20.40;65.00;;;;;;4964391;28;19918;-65
2021/07/02 05:23:43;;;;;;;;;;;20.40;65.70;;;;;;4971705;28;20316;-61
2021/07/02 05:26:11;;;;;;;;;;;20.40;66.10;;;;;;4965800;28;19918;-61
2021/07/02 05:28:37;;;;;;;;;;;20.40;66.10;;;;;;4961722;28;19922;-61
2021/07/02 05:31:02;;;;;;;;;;;20.40;65.80;;;;;;4973335;28;20279;-62
2021/07/02 05:33:28;;;;;;;;;;;20.40;66.20;;;;;;4962891;28;19922;-60
2021/07/02 05:35:53;;;;;;;;;;;20.50;66.20;;;;;;4970078;28;19926;-61
2021/07/02 05:38:18;;;;;;;;;;;20.50;66.20;;;;;;4967311;28;20268;-63
2021/07/02 05:40:44;;;;;;;;;;;20.50;66.00;;;;;;4968721;28;19921;-62
2021/07/02 05:43:09;;;;;;;;;;;20.50;65.70;;;;;;4960401;28;19925;-63
2021/07/02 05:45:35;;;;;;;;;;;20.50;65.90;;;;;;4960566;28;19918;-63
2021/07/02 05:48:02;;;;;;;;;;;20.50;66.00;;;;;;4965945;28;20315;-64
2021/07/02 05:50:27;;;;;;;;;;;20.50;66.10;;;;;;4969627;28;20319;-61
2021/07/02 05:52:54;;;;;;;;;;;20.50;65.70;;;;;;4970077;28;19918;-62
2021/07/02 05:55:20;;;;;;;;;;;20.50;65.30;;;;;;4965292;28;20547;-62
2021/07/02 05:57:46;;;;;;;;;;;20.50;65.60;;;;;;4975255;28;19923;-61
2021/07/02 06:00:12;;;;;;;;;;;20.50;65.70;;;;;;4970416;28;20417;-61
2021/07/02 06:02:37;;;;;;;;;;;20.50;65.10;;;;;;4962791;28;20096;-61
2021/07/02 06:05:03;;;;;;;;;;;20.50;65.50;;;;;;4971255;28;19921;-60
2021/07/02 06:07:28;;;;;;;;;;;20.50;64.90;;;;;;4961937;28;20005;-61
2021/07/02 06:09:54;;;;;;;;;;;20.50;64.30;;;;;;4958789;28;19914;-61
2021/07/02 06:12:19;;;;;;;;;;;20.50;64.60;;;;;;4964583;28;19918;-61
2021/07/02 06:14:45;;;;;;;;;;;20.50;64.60;;;;;;4978848;28;19920;-62
2021/07/02 06:17:10;;;;;;;;;;;20.50;64.50;;;;;;4978393;28;19925;-61
2021/07/02 06:19:36;;;;;;;;;;;20.50;64.60;;;;;;4958881;28;19922;-62
2021/07/02 06:22:01;;;;;;;;;;;20.50;65.40;;;;;;4962145;28;19949;-62
2021/07/02 06:24:27;;;;;;;;;;;20.50;64.40;;;;;;4972621;28;19921;-61
2021/07/02 06:26:52;;;;;;;;;;;20.50;64.70;;;;;;4963857;28;19925;-62
2021/07/02 06:29:18;;;;;;;;;;;20.50;64.60;;;;;;4975439;28;19933;-62
2021/07/02 06:31:43;;;;;;;;;;;20.50;64.60;;;;;;4970538;28;20573;-62
2021/07/02 06:34:09;;;;;;;;;;;20.50;64.70;;;;;;4971628;28;20564;-62
2021/07/02 06:36:34;;;;;;;;;;;20.50;64.60;;;;;;4963217;28;19925;-62
2021/07/02 06:38:59;;;;;;;;;;;20.50;64.90;;;;;;4973177;28;20185;-62
2021/07/02 06:41:25;;;;;;;;;;;20.50;65.10;;;;;;4963374;28;19926;-62
2021/07/02 06:43:50;;;;;;;;;;;20.50;65.00;;;;;;4965092;28;19922;-62
2021/07/02 06:46:16;;;;;;;;;;;20.50;65.10;;;;;;4970525;28;20116;-63
2021/07/02 06:48:41;;;;;;;;;;;20.50;65.20;;;;;;4970659;28;19949;-62
2021/07/02 06:51:07;;;;;;;;;;;20.50;65.50;;;;;;4969320;28;19921;-63
2021/07/02 06:53:32;;;;;;;;;;;20.50;65.40;;;;;;4971991;28;20380;-62
2021/07/02 06:55:58;;;;;;;;;;;20.50;65.80;;;;;;4965417;28;19914;-62
2021/07/02 06:58:23;;;;;;;;;;;20.50;65.80;;;;;;4966232;28;19913;-62
2021/07/02 07:00:49;;;;;;;;;;;20.50;65.80;;;;;;4949667;28;19922;-62
2021/07/02 07:03:14;;;;;;;;;;;20.50;65.70;;;;;;4960046;28;19926;-62
2021/07/02 07:05:40;;;;;;;;;;;20.50;65.80;;;;;;4968425;28;20356;-62
2021/07/02 07:08:07;;;;;;;;;;;20.50;65.80;;;;;;4975889;28;19918;-62
2021/07/02 07:10:34;;;;;;;;;;;20.50;65.70;;;;;;4977818;28;19926;-64
2021/07/02 07:13:00;;;;;;;;;;;20.50;65.90;;;;;;4975239;28;20598;-62
2021/07/02 07:15:25;;;;;;;;;;;20.50;65.90;;;;;;4977913;28;19921;-62
2021/07/02 07:17:51;;;;;;;;;;;20.50;66.00;;;;;;4958251;28;19918;-62
2021/07/02 07:20:16;;;;;;;;;;;20.50;65.70;;;;;;4959870;28;19946;-61
2021/07/02 07:22:42;;;;;;;;;;;20.50;65.90;;;;;;4959159;28;19929;-62
2021/07/02 07:25:08;;;;;;;;;;;20.50;65.80;;;;;;4968372;28;19925;-62
2021/07/02 07:27:33;;;;;;;;;;;20.50;65.90;;;;;;4969017;28;19914;-62
2021/07/02 07:29:59;;;;;;;;;;;20.50;65.90;;;;;;4962273;28;20430;-63
2021/07/02 07:32:24;;;;;;;;;;;20.50;66.60;;;;;;4974797;28;20008;-62
2021/07/02 07:34:58;;;;;;;;;;;20.50;65.90;;;;;;4975207;28;20379;-63
2021/07/02 07:37:26;;;;;;;;;;;20.50;65.90;;;;;;4972539;28;20573;-63
2021/07/02 07:39:52;;;;;;;;;;;20.50;65.80;;;;;;4972476;28;20419;-62
2021/07/02 07:42:18;;;;;;;;;;;20.50;65.90;;;;;;4970036;28;20009;-62
2021/07/02 07:44:43;;;;;;;;;;;20.50;65.90;;;;;;4966644;28;20653;-62
2021/07/02 07:47:09;;;;;;;;;;;20.50;65.90;;;;;;4966686;28;19944;-62
2021/07/02 07:49:34;;;;;;;;;;;20.50;65.90;;;;;;4961682;28;19953;-62
2021/07/02 07:52:12;;;;;;;;;;;20.50;66.00;;;;;;4975165;28;19922;-63
2021/07/02 07:54:38;;;;;;;;;;;20.50;65.80;;;;;;4978604;28;19917;-62
2021/07/02 07:57:03;;;;;;;;;;;20.50;66.10;;;;;;4969836;28;20389;-63
2021/07/02 07:59:30;;;;;;;;;;;20.50;66.10;;;;;;4974801;28;20439;-62
2021/07/02 08:01:55;;;;;;;;;;;20.50;66.10;;;;;;5001801;23;19925;-69
2021/07/02 08:04:21;;;;;;;;;;;20.50;66.00;;;;;;4986283;28;19922;-71
2021/07/02 08:06:46;;;;;;;;;;;20.50;65.90;;;;;;4996144;28;19942;-70
2021/07/02 08:09:12;;;;;;;;;;;20.50;66.10;;;;;;5004196;28;20501;-71
2021/07/02 08:11:38;;;;;;;;;;;20.50;66.10;;;;;;4998661;28;20372;-70
2021/07/02 08:14:04;;;;;;;;;;;20.50;66.10;;;;;;5003853;28;19922;-70
2021/07/02 08:16:29;;;;;;;;;;;20.50;66.20;;;;;;5003158;28;19913;-71
2021/07/02 08:18:54;;;;;;;;;;;20.50;66.10;;;;;;5018220;28;20024;-70
2021/07/02 08:21:20;;;;;;;;;;;20.50;66.10;;;;;;5022739;28;20268;-70
2021/07/02 08:23:45;;;;;;;;;;;20.50;66.20;;;;;;5023030;28;19921;-72
2021/07/02 08:26:11;;;;;;;;;;;20.50;66.00;;;;;;5016946;28;19970;-71
2021/07/02 08:31:21;;;;;;;;;;;20.50;66.10;;;;;;5018060;28;20438;-70
2021/07/02 08:33:46;;;;;;;;;;;20.50;66.10;;;;;;5005733;28;19921;-71
2021/07/02 08:36:12;;;;;;;;;;;20.50;66.00;;;;;;4996567;28;20291;-70
2021/07/02 08:38:37;;;;;;;;;;;20.50;66.10;;;;;;5015575;28;19946;-71
2021/07/02 08:41:03;;;;;;;;;;;20.50;66.00;;;;;;5007848;28;19913;-70
2021/07/02 08:43:29;;;;;;;;;;;20.50;66.10;;;;;;5015226;28;19921;-70
2021/07/02 08:45:54;;;;;;;;;;;20.50;66.10;;;;;;5000489;28;20226;-71
2021/07/02 08:48:20;;;;;;;;;;;20.50;66.10;;;;;;5000998;28;20091;-70
2021/07/02 08:50:46;;;;;;;;;;;20.50;66.40;;;;;;4988106;28;19918;-69
2021/07/02 08:53:11;;;;;;;;;;;20.50;66.10;;;;;;5024389;28;20221;-69
2021/07/02 08:55:39;;;;;;;;;;;20.50;66.00;;;;;;5010841;28;19921;-70
2021/07/02 08:58:10;;;;;;;;;;;20.50;66.10;;;;;;5022471;28;19913;-71
2021/07/02 09:00:35;;;;;;;;;;;20.50;66.30;;;;;;5013683;28;19913;-70
2021/07/02 09:03:01;;;;;;;;;;;20.50;66.10;;;;;;4985779;28;19922;-70
2021/07/02 09:05:33;;;;;;;;;;;20.50;66.30;;;;;;4997738;28;19921;-69
2021/07/02 09:07:59;;;;;;;;;;;20.50;66.10;;;;;;5010218;28;19914;-69
2021/07/02 09:10:34;;;;;;;;;;;20.50;66.20;;;;;;5012806;28;19917;-70
2021/07/02 09:12:59;;;;;;;;;;;20.50;66.10;;;;;;5023697;28;19924;-70
2021/07/02 09:15:25;;;;;;;;;;;20.50;66.20;;;;;;4993442;28;19913;-69
2021/07/02 09:17:50;;;;;;;;;;;20.50;66.20;;;;;;5018479;28;20403;-68
2021/07/02 09:20:18;;;;;;;;;;;20.50;66.20;;;;;;5018933;28;19913;-70
2021/07/02 09:22:50;;;;;;;;;;;20.50;66.20;;;;;;5013501;28;19922;-69
2021/07/02 09:25:20;;;;;;;;;;;20.50;66.00;;;;;;5017824;28;19917;-69
2021/07/02 09:27:46;;;;;;;;;;;20.40;66.10;;;;;;5019678;28;20380;-70
2021/07/02 09:30:12;;;;;;;;;;;20.50;66.10;;;;;;5022158;28;19920;-68
2021/07/02 09:32:45;;;;;;;;;;;20.50;66.20;;;;;;5022998;28;19913;-70
2021/07/02 09:35:11;;;;;;;;;;;20.50;66.00;;;;;;5019258;28;20317;-70
2021/07/02 09:37:39;;;;;;;;;;;20.50;66.10;;;;;;5021451;28;19917;-70
2021/07/02 09:40:11;;;;;;;;;;;20.50;66.00;;;;;;5017531;28;19936;-70
2021/07/02 09:42:37;;;;;;;;;;;20.50;66.10;;;;;;5022723;28;19948;-69
2021/07/02 09:45:08;;;;;;;;;;;20.50;65.90;;;;;;5014649;28;20387;-70
2021/07/02 09:47:34;;;;;;;;;;;20.50;65.90;;;;;;5013244;28;19999;-70
2021/07/02 09:50:18;;;;;;;;;;;20.50;65.80;;;;;;5025156;28;20394;-71
2021/07/02 09:52:51;;;;;;;;;;;20.50;65.70;;;;;;5011148;28;19963;-69
2021/07/02 09:55:17;;;;;;;;;;;20.50;65.70;;;;;;4999163;28;20455;-70
2021/07/02 09:57:43;;;;;;;;;;;20.50;65.60;;;;;;5017546;28;20173;-70
2021/07/02 10:00:17;;;;;;;;;;;20.50;65.70;;;;;;5019091;28;19974;-70
2021/07/02 10:02:53;;;;;;;;;;;20.50;65.70;;;;;;5013064;28;19986;-70
2021/07/02 10:05:18;;;;;;;;;;;20.50;65.70;;;;;;4995310;28;19920;-69
2021/07/02 10:07:54;;;;;;;;;;;20.60;65.60;;;;;;5013756;28;19917;-70
2021/07/02 10:10:19;;;;;;;;;;;20.50;65.70;;;;;;5019510;28;19913;-70
2021/07/02 10:12:45;;;;;;;;;;;20.50;65.60;;;;;;5005022;28;20622;-70
2021/07/02 10:15:10;;;;;;;;;;;20.50;65.70;;;;;;5022301;28;19917;-70
2021/07/02 10:17:36;;;;;;;;;;;20.60;65.80;;;;;;5026735;28;19913;-70
2021/07/02 10:20:01;;;;;;;;;;;20.50;65.80;;;;;;5002031;28;20028;-70
2021/07/02 10:22:27;;;;;;;;;;;20.50;65.70;;;;;;5030444;28;19924;-70
2021/07/02 10:24:52;;;;;;;;;;;20.60;65.90;;;;;;5014465;28;19913;-71
2021/07/02 10:27:18;;;;;;;;;;;20.50;65.80;;;;;;4997730;28;19921;-70
2021/07/02 10:29:43;;;;;;;;;;;20.50;65.80;;;;;;5008858;28;20406;-70
2021/07/02 10:32:09;;;;;;;;;;;20.50;65.70;;;;;;5010465;28;19913;-70
2021/07/02 10:34:35;;;;;;;;;;;20.60;65.80;;;;;;5010072;28;19914;-69
2021/07/02 10:37:00;;;;;;;;;;;20.50;65.70;;;;;;5026270;28;20068;-69
2021/07/02 10:39:29;;;;;;;;;;;20.50;65.70;;;;;;4995674;28;19913;-69
2021/07/02 10:42:08;;;;;;;;;;;20.50;65.90;;;;;;5024062;28;19921;-69
2021/07/02 10:44:33;;;;;;;;;;;20.60;65.70;;;;;;5019966;28;19917;-69
2021/07/02 10:46:59;;;;;;;;;;;20.60;65.70;;;;;;5022965;28;19921;-70
2021/07/02 10:49:34;;;;;;;;;;;20.50;65.80;;;;;;5010110;28;19920;-70
2021/07/02 10:52:00;;;;;;;;;;;20.60;65.80;;;;;;4999664;28;20668;-69
2021/07/02 10:54:28;;;;;;;;;;;20.50;65.80;;;;;;5024894;28;19913;-70
2021/07/02 10:56:56;;;;;;;;;;;20.60;65.90;;;;;;5029715;28;19917;-69
2021/07/02 10:59:23;;;;;;;;;;;20.60;65.90;;;;;;5013879;28;19991;-69
2021/07/02 11:02:10;;;;;;;;;;;20.50;65.70;;;;;;4998379;28;19921;-70
2021/07/02 11:04:42;;;;;;;;;;;20.60;65.70;;;;;;5010479;28;20223;-69
2021/07/02 11:07:13;;;;;;;;;;;20.50;65.70;;;;;;5014361;28;19974;-70
2021/07/02 11:09:48;;;;;;;;;;;20.60;65.90;;;;;;5002077;28;19917;-70
2021/07/02 11:12:13;;;;;;;;;;;20.60;65.90;;;;;;5021012;28;19924;-69
2021/07/02 11:14:51;;;;;;;;;;;20.60;65.80;;;;;;5021836;28;19913;-69
2021/07/02 11:17:29;;;;;;;;;;;20.60;65.90;;;;;;5015740;28;19918;-70
2021/07/02 11:20:07;;;;;;;;;;;20.50;65.70;;;;;;5021119;28;19921;-70
2021/07/02 11:22:34;;;;;;;;;;;20.60;65.90;;;;;;4968838;28;19918;-69
2021/07/02 11:25:00;;;;;;;;;;;20.60;65.90;;;;;;5000285;28;20358;-70
2021/07/02 11:27:38;;;;;;;;;;;20.60;65.90;;;;;;5013226;28;19957;-70
2021/07/02 11:30:07;;;;;;;;;;;20.60;65.90;;;;;;5018103;28;19927;-70
2021/07/02 11:32:33;;;;;;;;;;;20.60;65.80;;;;;;5023693;28;19952;-70
2021/07/02 11:35:20;;;;;;;;;;;20.50;65.80;;;;;;5020418;28;19913;-70
2021/07/02 11:37:58;;;;;;;;;;;20.50;65.90;;;;;;5009658;28;19914;-70
2021/07/02 11:40:24;;;;;;;;;;;20.50;65.80;;;;;;5006743;28;19918;-70
2021/07/02 11:42:52;;;;;;;;;;;20.50;65.90;;;;;;5010247;28;20500;-70
2021/07/02 11:45:17;;;;;;;;;;;20.50;66.00;;;;;;5002526;28;19914;-70
2021/07/02 11:47:43;;;;;;;;;;;20.60;66.00;;;;;;4993053;28;20065;-70
2021/07/02 11:50:08;;;;;;;;;;;20.50;65.90;;;;;;5009244;28;19921;-70
2021/07/02 11:52:34;;;;;;;;;;;20.60;65.90;;;;;;5003841;28;20427;-70
2021/07/02 11:54:59;;;;;;;;;;;20.50;66.00;;;;;;5003607;28;20270;-70
2021/07/02 11:57:25;;;;;;;;;;;20.50;66.10;;;;;;4996620;28;19922;-69
2021/07/02 11:59:57;;;;;;;;;;;20.50;66.70;;;;;;5000596;28;19913;-70
2021/07/02 12:02:22;;;;;;;;;;;20.50;66.10;;;;;;4997077;28;19949;-70
2021/07/02 12:05:00;;;;;;;;;;;20.50;66.10;;;;;;5001370;28;19948;-68
2021/07/02 12:07:25;;;;;;;;;;;20.50;66.20;;;;;;5010776;28;19918;-68
2021/07/02 12:09:51;;;;;;;;;;;20.60;66.40;;;;;;4995747;28;20304;-69
2021/07/02 12:12:19;;;;;;;;;;;20.50;66.30;;;;;;5004454;28;19919;-69
2021/07/02 12:14:45;;;;;;;;;;;20.60;66.20;;;;;;5008005;28;19914;-70
2021/07/02 12:17:10;;;;;;;;;;;20.50;66.10;;;;;;5005466;28;19990;-70
2021/07/02 12:19:37;;;;;;;;;;;20.50;66.20;;;;;;5005388;28;19913;-67
2021/07/02 12:22:06;;;;;;;;;;;20.50;66.30;;;;;;4999319;28;19913;-70
2021/07/02 12:24:36;;;;;;;;;;;20.50;66.20;;;;;;5014331;28;20277;-70
2021/07/02 12:27:02;;;;;;;;;;;20.50;66.20;;;;;;4998935;28;20316;-70
2021/07/02 12:29:28;;;;;;;;;;;20.50;66.20;;;;;;5000700;28;19918;-70
2021/07/02 12:31:54;;;;;;;;;;;20.50;66.30;;;;;;5000555;28;19918;-70
2021/07/02 12:34:20;;;;;;;;;;;20.50;66.20;;;;;;5017192;28;19990;-70
2021/07/02 12:36:56;;;;;;;;;;;20.50;66.20;;;;;;5011393;28;19921;-71
2021/07/02 12:39:24;;;;;;;;;;;20.50;66.40;;;;;;5013511;28;20091;-70
2021/07/02 12:41:50;;;;;;;;;;;20.50;66.30;;;;;;4998054;28;20085;-70
2021/07/02 12:44:16;;;;;;;;;;;20.50;66.40;;;;;;4998086;28;19928;-70
2021/07/02 12:46:41;;;;;;;;;;;20.50;66.30;;;;;;4977473;28;20007;-70
2021/07/02 12:49:16;;;;;;;;;;;20.50;66.30;;;;;;5013255;28;19966;-69
2021/07/02 12:51:49;;;;;;;;;;;20.50;66.30;;;;;;4973949;28;19918;-69
2021/07/02 12:56:58;;;;;;;;;;;20.50;66.50;;;;;;4972280;28;19926;-69
2021/07/02 12:59:24;;;;;;;;;;;20.50;66.40;;;;;;5001231;28;19917;-70
2021/07/02 13:01:49;;;;;;;;;;;20.50;66.50;;;;;;4991121;28;19931;-70
2021/07/02 13:04:15;;;;;;;;;;;20.40;66.60;;;;;;5005270;28;20348;-70
2021/07/02 13:06:40;;;;;;;;;;;20.50;66.60;;;;;;5000282;28;19914;-70
2021/07/02 13:09:23;;;;;;;;;;;20.50;66.60;;;;;;5012515;28;19936;-70
2021/07/02 13:11:48;;;;;;;;;;;20.40;66.60;;;;;;5003246;28;20585;-70
2021/07/02 13:14:29;;;;;;;;;;;20.50;66.70;;;;;;5008308;28;19968;-70
2021/07/02 13:16:54;;;;;;;;;;;20.50;66.90;;;;;;4983426;28;19948;-70
2021/07/02 13:19:38;;;;;;;;;;;20.50;66.60;;;;;;5033141;28;19924;-70
2021/07/02 13:22:10;;;;;;;;;;;20.40;66.60;;;;;;4998608;28;20368;-69
2021/07/02 13:24:35;;;;;;;;;;;20.50;66.70;;;;;;5013585;28;19921;-70
2021/07/02 13:27:00;;;;;;;;;;;20.50;66.70;;;;;;5009137;28;19924;-70
2021/07/02 13:29:29;;;;;;;;;;;20.50;66.60;;;;;;5014185;28;19964;-70
2021/07/02 13:31:57;;;;;;;;;;;20.50;66.60;;;;;;4989083;28;19936;-70
2021/07/02 13:34:23;;;;;;;;;;;20.50;66.80;;;;;;5025195;28;19917;-70
2021/07/02 13:36:54;;;;;;;;;;;20.50;66.60;;;;;;5020183;28;19924;-70
2021/07/02 13:39:21;;;;;;;;;;;20.50;66.70;;;;;;5015052;28;19964;-70
2021/07/02 13:41:58;;;;;;;;;;;20.50;66.70;;;;;;5005972;28;19913;-70
2021/07/02 13:44:29;;;;;;;;;;;20.50;66.80;;;;;;5021320;28;19921;-69
2021/07/02 13:47:04;;;;;;;;;;;20.50;66.70;;;;;;4999203;28;19928;-69
2021/07/02 13:49:33;;;;;;;;;;;20.50;66.60;;;;;;5022948;28;19963;-70
2021/07/02 13:51:59;;;;;;;;;;;20.50;66.70;;;;;;5011107;28;19917;-70
2021/07/02 13:54:24;;;;;;;;;;;20.50;66.60;;;;;;5014917;28;20460;-70
2021/07/02 13:56:50;;;;;;;;;;;20.50;66.60;;;;;;5012971;28;19917;-70
2021/07/02 13:59:16;;;;;;;;;;;20.50;66.70;;;;;;5028167;28;19928;-70
2021/07/02 14:01:41;;;;;;;;;;;20.50;66.60;;;;;;5020085;28;19928;-71
2021/07/02 14:04:07;;;;;;;;;;;20.50;66.80;;;;;;5010267;28;19922;-71
2021/07/02 14:06:32;;;;;;;;;;;20.50;66.60;;;;;;5006672;28;19957;-70
2021/07/02 14:08:58;;;;;;;;;;;20.50;66.60;;;;;;5025179;28;20307;-69
2021/07/02 14:11:23;;;;;;;;;;;20.50;66.70;;;;;;5016646;28;19917;-72
2021/07/02 14:13:49;;;;;;;;;;;20.50;66.60;;;;;;5021279;28;19924;-70
2021/07/02 14:16:14;;;;;;;;;;;20.50;66.60;;;;;;5012444;28;19917;-71
2021/07/02 14:18:39;;;;;;;;;;;20.50;66.60;;;;;;5013165;28;19914;-71